sensor_id;sensor_type;location;lat;lon;timestamp;pressure;altitude;pressure_sealevel;temperature;humidity
30875;BME280;17581;43.222;27.924;2023-05-23T07:30:26;100328.78;;;23.22;56.43
30875;BME280;17581;43.222;27.924;2023-05-23T07:36:53;100331.94;;;23.26;55.76
30875;BME280;17581;43.222;27.924;2023-05-23T07:39:19;100328.78;;;23.22;56.23
30875;BME280;17581;43.222;27.924;2023-05-23T07:41:47;100322.25;;;22.97;56.17
30875;BME280;17581;43.222;27.924;2023-05-23T07:44:13;100331.34;;;22.85;56.69
30875;BME280;17581;43.222;27.924;2023-05-23T07:46:38;100324.16;;;22.97;56.46
30875;BME280;17581;43.222;27.924;2023-05-23T07:49:04;100335.78;;;22.99;56.29
30875;BME280;17581;43.222;27.924;2023-05-23T07:51:29;100321.03;;;22.87;56.52
30875;BME280;17581;43.222;27.924;2023-05-23T07:53:55;100322.31;;;22.84;56.87
30875;BME280;17581;43.222;27.924;2023-05-23T07:56:21;100333.47;;;22.96;56.45
30875;BME280;17581;43.222;27.924;2023-05-23T07:58:47;100345.28;;;22.96;56.47
30875;BME280;17581;43.222;27.924;2023-05-23T08:01:13;100335.97;;;22.91;56.52
30875;BME280;17581;43.222;27.924;2023-05-23T08:03:38;100338.53;;;22.99;56.95
30875;BME280;17581;43.222;27.924;2023-05-23T08:06:04;100345.47;;;23.08;56.25
30875;BME280;17581;43.222;27.924;2023-05-23T08:08:30;100342.94;;;23.00;56.77
30875;BME280;17581;43.222;27.924;2023-05-23T08:10:56;100344.84;;;23.06;56.02
30875;BME280;17581;43.222;27.924;2023-05-23T08:13:21;100336.59;;;23.06;56.35
30875;BME280;17581;43.222;27.924;2023-05-23T08:15:47;100338.09;;;22.89;56.45
30875;BME280;17581;43.222;27.924;2023-05-23T08:18:12;100333.03;;;23.05;56.81
30875;BME280;17581;43.222;27.924;2023-05-23T08:20:38;100332.38;;;23.23;56.40
30875;BME280;17581;43.222;27.924;2023-05-23T08:23:03;100317.13;;;23.33;55.07
30875;BME280;17581;43.222;27.924;2023-05-23T08:25:29;100315.00;;;23.49;54.16
30875;BME280;17581;43.222;27.924;2023-05-23T08:27:55;100314.13;;;23.61;53.99
30875;BME280;17581;43.222;27.924;2023-05-23T08:30:22;100325.09;;;23.61;53.78
30875;BME280;17581;43.222;27.924;2023-05-23T08:32:50;100311.22;;;23.43;54.34
30875;BME280;17581;43.222;27.924;2023-05-23T08:35:15;100305.53;;;23.38;55.58
30875;BME280;17581;43.222;27.924;2023-05-23T08:37:41;100297.13;;;23.20;55.74
30875;BME280;17581;43.222;27.924;2023-05-23T08:40:16;100317.88;;;23.73;55.67
30875;BME280;17581;43.222;27.924;2023-05-23T08:42:43;100315.91;;;23.94;54.15
30875;BME280;17581;43.222;27.924;2023-05-23T08:45:09;100310.13;;;24.02;53.90
30875;BME280;17581;43.222;27.924;2023-05-23T08:47:36;100316.69;;;24.01;53.72
30875;BME280;17581;43.222;27.924;2023-05-23T08:50:05;100318.25;;;23.90;54.07
30875;BME280;17581;43.222;27.924;2023-05-23T08:52:32;100326.25;;;23.92;53.38
30875;BME280;17581;43.222;27.924;2023-05-23T08:54:59;100303.81;;;23.50;54.05
30875;BME280;17581;43.222;27.924;2023-05-23T08:57:26;100321.91;;;23.71;54.43
30875;BME280;17581;43.222;27.924;2023-05-23T08:59:53;100322.19;;;23.50;54.82
30875;BME280;17581;43.222;27.924;2023-05-23T09:02:20;100325.69;;;23.76;54.93
30875;BME280;17581;43.222;27.924;2023-05-23T09:04:46;100315.34;;;23.78;54.35
30875;BME280;17581;43.222;27.924;2023-05-23T09:07:14;100317.00;;;23.79;54.61
30875;BME280;17581;43.222;27.924;2023-05-23T09:09:41;100327.63;;;23.69;57.08
30875;BME280;17581;43.222;27.924;2023-05-23T09:12:06;100314.34;;;23.60;58.28
30875;BME280;17581;43.222;27.924;2023-05-23T09:14:32;100316.69;;;23.37;60.56
30875;BME280;17581;43.222;27.924;2023-05-23T09:17:00;100305.78;;;23.30;61.44
30875;BME280;17581;43.222;27.924;2023-05-23T09:19:27;100310.00;;;23.13;61.19
30875;BME280;17581;43.222;27.924;2023-05-23T09:22:49;100311.28;;;22.91;62.26
30875;BME280;17581;43.222;27.924;2023-05-23T09:25:26;100311.06;;;22.46;63.43
30875;BME280;17581;43.222;27.924;2023-05-23T09:27:54;100285.94;;;22.10;64.42
30875;BME280;17581;43.222;27.924;2023-05-23T09:30:24;100291.84;;;22.20;64.97
30875;BME280;17581;43.222;27.924;2023-05-23T09:32:57;100321.34;;;22.18;65.23
30875;BME280;17581;43.222;27.924;2023-05-23T09:35:23;100327.28;;;22.35;65.12
30875;BME280;17581;43.222;27.924;2023-05-23T09:37:50;100327.28;;;22.28;65.25
30875;BME280;17581;43.222;27.924;2023-05-23T09:40:16;100316.72;;;22.18;64.75
30875;BME280;17581;43.222;27.924;2023-05-23T09:42:46;100331.56;;;21.90;66.28
30875;BME280;17581;43.222;27.924;2023-05-23T09:45:13;100334.25;;;21.77;67.01
30875;BME280;17581;43.222;27.924;2023-05-23T09:47:38;100307.66;;;21.23;68.15
30875;BME280;17581;43.222;27.924;2023-05-23T09:50:04;100330.16;;;20.70;70.21
30875;BME280;17581;43.222;27.924;2023-05-23T09:52:36;100348.16;;;20.57;71.87
30875;BME280;17581;43.222;27.924;2023-05-23T09:55:05;100351.69;;;20.37;73.10
30875;BME280;17581;43.222;27.924;2023-05-23T09:57:34;100356.97;;;20.38;73.17
30875;BME280;17581;43.222;27.924;2023-05-23T10:00:02;100358.78;;;20.31;73.94
30875;BME280;17581;43.222;27.924;2023-05-23T10:07:58;100361.91;;;20.28;72.67
30875;BME280;17581;43.222;27.924;2023-05-23T10:10:27;100360.03;;;20.50;72.17
30875;BME280;17581;43.222;27.924;2023-05-23T10:12:57;100344.94;;;20.75;71.32
30875;BME280;17581;43.222;27.924;2023-05-23T10:15:25;100347.16;;;20.93;70.44
30875;BME280;17581;43.222;27.924;2023-05-23T10:18:08;100350.69;;;20.87;70.62
30875;BME280;17581;43.222;27.924;2023-05-23T10:20:35;100354.00;;;20.54;71.58
30875;BME280;17581;43.222;27.924;2023-05-23T10:23:03;100343.28;;;20.17;72.28
30875;BME280;17581;43.222;27.924;2023-05-23T10:25:29;100341.69;;;19.87;72.53
30875;BME280;17581;43.222;27.924;2023-05-23T10:27:56;100356.94;;;19.81;73.22
30875;BME280;17581;43.222;27.924;2023-05-23T10:30:26;100371.53;;;19.74;74.59
30875;BME280;17581;43.222;27.924;2023-05-23T10:32:53;100354.13;;;19.60;74.78
30875;BME280;17581;43.222;27.924;2023-05-23T10:44:11;100380.13;;;19.41;77.93
30875;BME280;17581;43.222;27.924;2023-05-23T10:46:54;100368.97;;;19.14;80.14
30875;BME280;17581;43.222;27.924;2023-05-23T10:49:37;100361.31;;;18.94;80.98
30875;BME280;17581;43.222;27.924;2023-05-23T10:52:04;100382.13;;;19.10;81.49
30875;BME280;17581;43.222;27.924;2023-05-23T10:54:51;100372.31;;;19.01;82.19
30875;BME280;17581;43.222;27.924;2023-05-23T10:57:24;100389.47;;;18.87;83.19
30875;BME280;17581;43.222;27.924;2023-05-23T10:59:53;100400.16;;;19.11;84.37
30875;BME280;17581;43.222;27.924;2023-05-23T11:02:25;100405.53;;;19.19;84.82
30875;BME280;17581;43.222;27.924;2023-05-23T11:05:21;100396.78;;;19.24;85.66
30875;BME280;17581;43.222;27.924;2023-05-23T11:08:10;100376.41;;;19.34;86.34
30875;BME280;17581;43.222;27.924;2023-05-23T11:11:00;100385.19;;;19.44;86.43
30875;BME280;17581;43.222;27.924;2023-05-23T11:13:57;100382.66;;;19.72;86.26
30875;BME280;17581;43.222;27.924;2023-05-23T11:21:43;100363.06;;;19.69;83.67
30875;BME280;17581;43.222;27.924;2023-05-23T11:24:09;100382.38;;;20.03;84.10
30875;BME280;17581;43.222;27.924;2023-05-23T11:26:35;100377.84;;;20.10;84.05
30875;BME280;17581;43.222;27.924;2023-05-23T11:29:00;100365.38;;;20.22;83.71
30875;BME280;17581;43.222;27.924;2023-05-23T11:31:28;100374.00;;;20.40;82.99
30875;BME280;17581;43.222;27.924;2023-05-23T11:33:54;100366.09;;;20.09;81.98
30875;BME280;17581;43.222;27.924;2023-05-23T11:36:21;100376.22;;;20.16;82.72
30875;BME280;17581;43.222;27.924;2023-05-23T11:38:48;100364.84;;;20.12;82.63
30875;BME280;17581;43.222;27.924;2023-05-23T11:41:14;100382.72;;;20.29;82.42
30875;BME280;17581;43.222;27.924;2023-05-23T11:43:51;100368.44;;;20.27;81.00
30875;BME280;17581;43.222;27.924;2023-05-23T11:46:17;100363.47;;;20.37;80.44
30875;BME280;17581;43.222;27.924;2023-05-23T11:48:46;100370.09;;;20.28;79.69
30875;BME280;17581;43.222;27.924;2023-05-23T11:51:12;100372.00;;;20.49;79.52
30875;BME280;17581;43.222;27.924;2023-05-23T11:53:38;100369.88;;;20.66;79.84
30875;BME280;17581;43.222;27.924;2023-05-23T11:56:04;100372.44;;;20.74;78.64
30875;BME280;17581;43.222;27.924;2023-05-23T11:58:37;100369.28;;;20.70;78.74
30875;BME280;17581;43.222;27.924;2023-05-23T12:01:04;100353.63;;;20.57;77.42
30875;BME280;17581;43.222;27.924;2023-05-23T12:03:32;100372.47;;;20.52;76.29
30875;BME280;17581;43.222;27.924;2023-05-23T12:05:58;100357.56;;;20.55;76.54
30875;BME280;17581;43.222;27.924;2023-05-23T12:08:23;100362.13;;;20.69;77.24
30875;BME280;17581;43.222;27.924;2023-05-23T12:10:59;100363.69;;;20.57;77.61
30875;BME280;17581;43.222;27.924;2023-05-23T12:13:28;100348.25;;;20.28;78.30
30875;BME280;17581;43.222;27.924;2023-05-23T12:15:58;100350.03;;;20.36;78.27
30875;BME280;17581;43.222;27.924;2023-05-23T12:18:27;100352.69;;;20.50;77.19
30875;BME280;17581;43.222;27.924;2023-05-23T12:20:53;100357.63;;;20.40;76.70
30875;BME280;17581;43.222;27.924;2023-05-23T12:23:23;100334.00;;;19.97;76.34
30875;BME280;17581;43.222;27.924;2023-05-23T12:25:53;100321.47;;;19.81;77.12
30875;BME280;17581;43.222;27.924;2023-05-23T12:28:19;100360.31;;;20.19;77.41
30875;BME280;17581;43.222;27.924;2023-05-23T12:30:45;100352.31;;;20.18;77.12
30875;BME280;17581;43.222;27.924;2023-05-23T12:33:11;100357.38;;;20.35;77.54
30875;BME280;17581;43.222;27.924;2023-05-23T12:35:36;100338.47;;;20.19;75.93
30875;BME280;17581;43.222;27.924;2023-05-23T12:38:05;100349.38;;;20.19;77.00
30875;BME280;17581;43.222;27.924;2023-05-23T12:40:34;100328.09;;;20.29;76.68
30875;BME280;17581;43.222;27.924;2023-05-23T12:43:00;100325.63;;;20.55;74.67
30875;BME280;17581;43.222;27.924;2023-05-23T12:45:33;100320.56;;;20.80;73.17
30875;BME280;17581;43.222;27.924;2023-05-23T12:48:07;100338.56;;;20.96;71.75
30875;BME280;17581;43.222;27.924;2023-05-23T12:50:33;100340.34;;;21.31;72.18
30875;BME280;17581;43.222;27.924;2023-05-23T12:52:58;100324.16;;;21.36;69.42
30875;BME280;17581;43.222;27.924;2023-05-23T12:55:24;100307.09;;;21.34;69.07
30875;BME280;17581;43.222;27.924;2023-05-23T12:57:49;100316.72;;;21.64;69.34
30875;BME280;17581;43.222;27.924;2023-05-23T13:00:16;100332.56;;;21.76;67.51
30875;BME280;17581;43.222;27.924;2023-05-23T13:02:41;100293.38;;;21.75;68.25
30875;BME280;17581;43.222;27.924;2023-05-23T13:05:08;100317.75;;;22.04;66.74
30875;BME280;17581;43.222;27.924;2023-05-23T13:07:34;100334.81;;;22.13;66.35
30875;BME280;17581;43.222;27.924;2023-05-23T13:10:00;100331.72;;;22.29;66.19
30875;BME280;17581;43.222;27.924;2023-05-23T13:12:26;100310.81;;;22.21;64.95
30875;BME280;17581;43.222;27.924;2023-05-23T13:14:53;100340.34;;;22.39;64.54
30875;BME280;17581;43.222;27.924;2023-05-23T13:17:18;100342.00;;;22.27;63.85
30875;BME280;17581;43.222;27.924;2023-05-23T13:19:44;100318.84;;;22.30;62.97
30875;BME280;17581;43.222;27.924;2023-05-23T13:22:09;100329.09;;;22.08;63.40
30875;BME280;17581;43.222;27.924;2023-05-23T13:24:36;100326.81;;;22.18;63.88
30875;BME280;17581;43.222;27.924;2023-05-23T13:27:03;100331.69;;;22.16;63.13
30875;BME280;17581;43.222;27.924;2023-05-23T13:29:29;100328.38;;;21.80;63.94
30875;BME280;17581;43.222;27.924;2023-05-23T13:31:55;100300.16;;;21.38;65.60
30875;BME280;17581;43.222;27.924;2023-05-23T13:34:20;100309.91;;;21.54;65.78
30875;BME280;17581;43.222;27.924;2023-05-23T13:36:46;100331.97;;;21.39;66.08
30875;BME280;17581;43.222;27.924;2023-05-23T13:39:11;100340.88;;;21.54;66.23
30875;BME280;17581;43.222;27.924;2023-05-23T13:41:37;100340.25;;;21.59;65.82
30875;BME280;17581;43.222;27.924;2023-05-23T13:44:02;100341.69;;;21.48;66.13
30875;BME280;17581;43.222;27.924;2023-05-23T13:46:28;100339.75;;;21.42;65.56
30875;BME280;17581;43.222;27.924;2023-05-23T13:48:53;100337.44;;;21.39;65.48
30875;BME280;17581;43.222;27.924;2023-05-23T13:51:19;100331.03;;;21.26;65.86
30875;BME280;17581;43.222;27.924;2023-05-23T13:53:45;100332.84;;;21.12;66.08
30875;BME280;17581;43.222;27.924;2023-05-23T13:56:12;100350.16;;;21.19;65.54
30875;BME280;17581;43.222;27.924;2023-05-23T13:58:37;100348.06;;;21.00;66.65
30875;BME280;17581;43.222;27.924;2023-05-23T14:01:03;100359.00;;;20.72;66.70
30875;BME280;17581;43.222;27.924;2023-05-23T14:03:28;100363.38;;;20.67;67.29
30875;BME280;17581;43.222;27.924;2023-05-23T14:05:54;100361.13;;;20.55;67.70
30875;BME280;17581;43.222;27.924;2023-05-23T14:08:19;100364.25;;;20.31;69.11
30875;BME280;17581;43.222;27.924;2023-05-23T14:10:45;100367.44;;;20.35;69.55
30875;BME280;17581;43.222;27.924;2023-05-23T14:13:10;100371.56;;;20.45;69.70
30875;BME280;17581;43.222;27.924;2023-05-23T14:15:36;100360.69;;;20.52;69.82
30875;BME280;17581;43.222;27.924;2023-05-23T14:18:02;100363.22;;;20.75;69.08
30875;BME280;17581;43.222;27.924;2023-05-23T14:20:28;100341.91;;;20.42;68.71
30875;BME280;17581;43.222;27.924;2023-05-23T14:22:54;100361.78;;;20.79;68.79
30875;BME280;17581;43.222;27.924;2023-05-23T14:25:19;100325.09;;;20.67;67.74
30875;BME280;17581;43.222;27.924;2023-05-23T14:27:45;100362.84;;;21.05;67.95
30875;BME280;17581;43.222;27.924;2023-05-23T14:30:11;100358.75;;;20.95;67.43
30875;BME280;17581;43.222;27.924;2023-05-23T14:32:36;100355.13;;;20.88;68.71
30875;BME280;17581;43.222;27.924;2023-05-23T14:35:06;100347.44;;;20.77;69.07
30875;BME280;17581;43.222;27.924;2023-05-23T14:37:35;100368.09;;;20.58;70.45
30875;BME280;17581;43.222;27.924;2023-05-23T14:40:01;100367.28;;;20.36;72.91
30875;BME280;17581;43.222;27.924;2023-05-23T14:42:27;100365.31;;;20.16;73.44
30875;BME280;17581;43.222;27.924;2023-05-23T14:44:52;100366.75;;;19.97;75.50
30875;BME280;17581;43.222;27.924;2023-05-23T14:47:18;100369.63;;;19.89;76.57
30875;BME280;17581;43.222;27.924;2023-05-23T14:49:44;100373.88;;;19.77;78.45
30875;BME280;17581;43.222;27.924;2023-05-23T14:52:10;100353.69;;;19.57;79.38
30875;BME280;17581;43.222;27.924;2023-05-23T14:54:37;100348.66;;;19.60;80.35
30875;BME280;17581;43.222;27.924;2023-05-23T14:57:05;100365.13;;;19.67;82.65
30875;BME280;17581;43.222;27.924;2023-05-23T14:59:31;100356.69;;;19.62;82.77
30875;BME280;17581;43.222;27.924;2023-05-23T15:01:56;100361.47;;;19.60;82.03
30875;BME280;17581;43.222;27.924;2023-05-23T15:04:22;100346.34;;;19.42;82.03
30875;BME280;17581;43.222;27.924;2023-05-23T15:06:48;100338.88;;;19.36;82.60
30875;BME280;17581;43.222;27.924;2023-05-23T15:09:16;100353.50;;;19.43;82.33
30875;BME280;17581;43.222;27.924;2023-05-23T15:11:45;100349.41;;;19.54;82.59
30875;BME280;17581;43.222;27.924;2023-05-23T15:14:13;100343.31;;;19.52;82.90
30875;BME280;17581;43.222;27.924;2023-05-23T15:16:39;100340.69;;;19.59;82.79
30875;BME280;17581;43.222;27.924;2023-05-23T15:19:05;100339.75;;;19.51;82.48
30875;BME280;17581;43.222;27.924;2023-05-23T15:21:30;100352.72;;;19.49;82.07
30875;BME280;17581;43.222;27.924;2023-05-23T15:23:56;100329.00;;;19.35;81.69
30875;BME280;17581;43.222;27.924;2023-05-23T15:26:23;100347.44;;;19.33;82.26
30875;BME280;17581;43.222;27.924;2023-05-23T15:28:48;100346.03;;;19.23;81.22
30875;BME280;17581;43.222;27.924;2023-05-23T15:31:14;100344.22;;;19.15;80.74
30875;BME280;17581;43.222;27.924;2023-05-23T15:33:39;100337.16;;;19.21;81.08
30875;BME280;17581;43.222;27.924;2023-05-23T15:36:05;100325.63;;;19.04;80.59
30875;BME280;17581;43.222;27.924;2023-05-23T15:38:31;100347.91;;;19.22;80.73
30875;BME280;17581;43.222;27.924;2023-05-23T15:40:56;100355.91;;;19.38;79.55
30875;BME280;17581;43.222;27.924;2023-05-23T15:43:23;100333.91;;;19.40;79.33
30875;BME280;17581;43.222;27.924;2023-05-23T15:45:50;100354.44;;;19.50;78.13
30875;BME280;17581;43.222;27.924;2023-05-23T15:48:15;100333.91;;;19.54;77.62
30875;BME280;17581;43.222;27.924;2023-05-23T15:50:41;100342.09;;;19.54;76.29
30875;BME280;17581;43.222;27.924;2023-05-23T15:53:07;100341.72;;;19.43;74.36
30875;BME280;17581;43.222;27.924;2023-05-23T15:55:32;100358.34;;;19.33;72.42
30875;BME280;17581;43.222;27.924;2023-05-23T15:57:57;100331.34;;;19.09;72.66
30875;BME280;17581;43.222;27.924;2023-05-23T16:00:23;100347.31;;;19.27;72.72
30875;BME280;17581;43.222;27.924;2023-05-23T16:02:49;100348.56;;;19.24;72.26
30875;BME280;17581;43.222;27.924;2023-05-23T16:05:14;100346.19;;;19.36;72.13
30875;BME280;17581;43.222;27.924;2023-05-23T16:07:40;100335.50;;;19.20;72.16
30875;BME280;17581;43.222;27.924;2023-05-23T16:10:06;100336.03;;;19.15;72.01
30875;BME280;17581;43.222;27.924;2023-05-23T16:12:31;100359.47;;;19.24;70.72
30875;BME280;17581;43.222;27.924;2023-05-23T16:14:57;100333.47;;;18.99;70.14
30875;BME280;17581;43.222;27.924;2023-05-23T16:17:22;100368.25;;;18.97;72.07
30875;BME280;17581;43.222;27.924;2023-05-23T16:19:48;100344.47;;;18.91;72.94
30875;BME280;17581;43.222;27.924;2023-05-23T16:22:13;100366.94;;;18.93;74.50
30875;BME280;17581;43.222;27.924;2023-05-23T16:24:39;100367.31;;;18.90;75.37
30875;BME280;17581;43.222;27.924;2023-05-23T16:27:04;100365.78;;;18.73;75.80
30875;BME280;17581;43.222;27.924;2023-05-23T16:29:30;100373.78;;;18.74;76.53
30875;BME280;17581;43.222;27.924;2023-05-23T16:31:55;100338.16;;;18.53;77.01
30875;BME280;17581;43.222;27.924;2023-05-23T16:34:21;100366.50;;;18.67;77.11
30875;BME280;17581;43.222;27.924;2023-05-23T16:36:46;100373.53;;;18.61;77.27
30875;BME280;17581;43.222;27.924;2023-05-23T16:39:12;100371.78;;;18.68;76.57
30875;BME280;17581;43.222;27.924;2023-05-23T16:41:38;100376.06;;;18.63;77.08
30875;BME280;17581;43.222;27.924;2023-05-23T16:44:03;100371.94;;;18.67;77.01
30875;BME280;17581;43.222;27.924;2023-05-23T16:46:29;100377.13;;;18.62;77.02
30875;BME280;17581;43.222;27.924;2023-05-23T16:48:54;100390.13;;;18.52;77.63
30875;BME280;17581;43.222;27.924;2023-05-23T16:51:20;100393.59;;;18.37;77.24
30875;BME280;17581;43.222;27.924;2023-05-23T16:53:45;100391.91;;;18.36;76.85
30875;BME280;17581;43.222;27.924;2023-05-23T16:56:11;100380.38;;;18.26;76.53
30875;BME280;17581;43.222;27.924;2023-05-23T16:58:36;100390.25;;;18.27;75.07
30875;BME280;17581;43.222;27.924;2023-05-23T17:01:05;100404.41;;;18.23;74.35
30875;BME280;17581;43.222;27.924;2023-05-23T17:03:31;100405.22;;;18.31;74.12
30875;BME280;17581;43.222;27.924;2023-05-23T17:05:57;100410.97;;;18.36;73.80
30875;BME280;17581;43.222;27.924;2023-05-23T17:08:22;100400.59;;;18.32;73.88
30875;BME280;17581;43.222;27.924;2023-05-23T17:10:48;100404.38;;;18.31;73.49
30875;BME280;17581;43.222;27.924;2023-05-23T17:13:13;100392.84;;;18.21;73.44
30875;BME280;17581;43.222;27.924;2023-05-23T17:15:39;100396.13;;;18.16;73.43
30875;BME280;17581;43.222;27.924;2023-05-23T17:18:04;100397.53;;;18.04;73.11
30875;BME280;17581;43.222;27.924;2023-05-23T17:20:30;100412.63;;;18.15;73.11
30875;BME280;17581;43.222;27.924;2023-05-23T17:22:55;100430.47;;;18.17;73.04
30875;BME280;17581;43.222;27.924;2023-05-23T17:25:21;100427.94;;;18.16;73.12
30875;BME280;17581;43.222;27.924;2023-05-23T17:27:46;100413.50;;;18.07;72.95
30875;BME280;17581;43.222;27.924;2023-05-23T17:30:12;100405.75;;;17.96;72.97
30875;BME280;17581;43.222;27.924;2023-05-23T17:32:43;100424.38;;;18.07;72.76
30875;BME280;17581;43.222;27.924;2023-05-23T17:35:09;100418.69;;;17.94;72.84
30875;BME280;17581;43.222;27.924;2023-05-23T17:37:35;100419.84;;;18.00;72.63
30875;BME280;17581;43.222;27.924;2023-05-23T17:40:00;100415.47;;;17.90;72.99
30875;BME280;17581;43.222;27.924;2023-05-23T17:42:26;100435.97;;;18.01;72.88
30875;BME280;17581;43.222;27.924;2023-05-23T17:44:51;100432.94;;;17.96;73.03
30875;BME280;17581;43.222;27.924;2023-05-23T17:47:17;100445.69;;;18.04;73.15
30875;BME280;17581;43.222;27.924;2023-05-23T17:49:42;100452.78;;;18.13;73.20
30875;BME280;17581;43.222;27.924;2023-05-23T17:52:08;100447.16;;;18.14;73.63
30875;BME280;17581;43.222;27.924;2023-05-23T17:54:35;100440.72;;;18.07;73.69
30875;BME280;17581;43.222;27.924;2023-05-23T17:57:01;100454.00;;;18.10;73.86
30875;BME280;17581;43.222;27.924;2023-05-23T17:59:27;100456.72;;;18.10;73.41
30875;BME280;17581;43.222;27.924;2023-05-23T18:01:53;100445.50;;;18.05;73.34
30875;BME280;17581;43.222;27.924;2023-05-23T18:04:18;100461.09;;;18.19;73.31
30875;BME280;17581;43.222;27.924;2023-05-23T18:06:44;100453.59;;;18.21;73.34
30875;BME280;17581;43.222;27.924;2023-05-23T18:09:09;100462.75;;;18.28;73.92
30875;BME280;17581;43.222;27.924;2023-05-23T18:11:34;100456.25;;;18.29;74.49
30875;BME280;17581;43.222;27.924;2023-05-23T18:14:01;100467.50;;;18.26;74.76
30875;BME280;17581;43.222;27.924;2023-05-23T18:16:26;100446.66;;;18.11;75.03
30875;BME280;17581;43.222;27.924;2023-05-23T18:18:52;100468.28;;;18.12;75.07
30875;BME280;17581;43.222;27.924;2023-05-23T18:21:17;100477.16;;;18.06;75.61
30875;BME280;17581;43.222;27.924;2023-05-23T18:23:43;100451.19;;;17.87;76.30
30875;BME280;17581;43.222;27.924;2023-05-23T18:26:09;100477.00;;;18.00;76.39
30875;BME280;17581;43.222;27.924;2023-05-23T18:28:34;100479.06;;;17.98;76.73
30875;BME280;17581;43.222;27.924;2023-05-23T18:31:00;100468.69;;;17.93;76.11
30875;BME280;17581;43.222;27.924;2023-05-23T18:33:28;100461.22;;;17.87;75.67
30875;BME280;17581;43.222;27.924;2023-05-23T18:35:53;100467.34;;;17.89;75.25
30875;BME280;17581;43.222;27.924;2023-05-23T18:38:19;100465.31;;;17.83;75.11
30875;BME280;17581;43.222;27.924;2023-05-23T18:40:44;100483.00;;;17.87;74.46
30875;BME280;17581;43.222;27.924;2023-05-23T18:43:10;100454.50;;;17.67;74.28
30875;BME280;17581;43.222;27.924;2023-05-23T18:45:37;100480.66;;;17.76;74.95
30875;BME280;17581;43.222;27.924;2023-05-23T18:48:03;100477.78;;;17.69;75.12
30875;BME280;17581;43.222;27.924;2023-05-23T18:50:29;100475.91;;;17.70;75.58
30875;BME280;17581;43.222;27.924;2023-05-23T18:52:54;100481.88;;;17.65;75.48
30875;BME280;17581;43.222;27.924;2023-05-23T18:55:20;100465.72;;;17.56;75.54
30875;BME280;17581;43.222;27.924;2023-05-23T18:57:46;100459.94;;;17.59;75.04
30875;BME280;17581;43.222;27.924;2023-05-23T19:00:12;100467.75;;;17.62;74.39
30875;BME280;17581;43.222;27.924;2023-05-23T19:02:37;100469.63;;;17.53;74.42
30875;BME280;17581;43.222;27.924;2023-05-23T19:05:08;100465.22;;;17.44;74.67
30875;BME280;17581;43.222;27.924;2023-05-23T19:07:34;100472.53;;;17.52;74.48
30875;BME280;17581;43.222;27.924;2023-05-23T19:09:59;100486.78;;;17.54;74.33
30875;BME280;17581;43.222;27.924;2023-05-23T19:12:25;100472.03;;;17.48;74.15
30875;BME280;17581;43.222;27.924;2023-05-23T19:14:50;100481.69;;;17.51;73.83
30875;BME280;17581;43.222;27.924;2023-05-23T19:17:16;100484.91;;;17.46;73.42
30875;BME280;17581;43.222;27.924;2023-05-23T19:19:42;100481.03;;;17.40;73.31
30875;BME280;17581;43.222;27.924;2023-05-23T19:22:08;100480.19;;;17.40;73.03
30875;BME280;17581;43.222;27.924;2023-05-23T19:24:33;100475.28;;;17.35;73.01
30875;BME280;17581;43.222;27.924;2023-05-23T19:26:59;100480.34;;;17.38;72.97
30875;BME280;17581;43.222;27.924;2023-05-23T19:29:26;100462.38;;;17.29;72.91
30875;BME280;17581;43.222;27.924;2023-05-23T19:31:51;100468.97;;;17.35;72.92
30875;BME280;17581;43.222;27.924;2023-05-23T19:34:17;100488.16;;;17.41;73.03
30875;BME280;17581;43.222;27.924;2023-05-23T19:36:43;100481.88;;;17.41;72.61
30875;BME280;17581;43.222;27.924;2023-05-23T19:39:08;100471.19;;;17.31;72.40
30875;BME280;17581;43.222;27.924;2023-05-23T19:41:34;100470.00;;;17.34;72.71
30875;BME280;17581;43.222;27.924;2023-05-23T19:43:59;100489.53;;;17.46;72.70
30875;BME280;17581;43.222;27.924;2023-05-23T19:46:26;100486.97;;;17.44;72.52
30875;BME280;17581;43.222;27.924;2023-05-23T19:48:53;100483.94;;;17.39;72.38
30875;BME280;17581;43.222;27.924;2023-05-23T19:51:19;100487.47;;;17.48;72.44
30875;BME280;17581;43.222;27.924;2023-05-23T19:53:45;100477.97;;;17.52;72.21
30875;BME280;17581;43.222;27.924;2023-05-23T19:56:11;100480.19;;;17.56;71.68
30875;BME280;17581;43.222;27.924;2023-05-23T19:58:36;100472.03;;;17.56;71.63
30875;BME280;17581;43.222;27.924;2023-05-23T20:01:02;100473.91;;;17.56;71.43
30875;BME280;17581;43.222;27.924;2023-05-23T20:03:27;100496.66;;;17.63;71.35
30875;BME280;17581;43.222;27.924;2023-05-23T20:05:53;100465.72;;;17.48;72.05
30875;BME280;17581;43.222;27.924;2023-05-23T20:08:19;100487.34;;;17.57;71.69
30875;BME280;17581;43.222;27.924;2023-05-23T20:10:45;100498.03;;;17.59;72.28
30875;BME280;17581;43.222;27.924;2023-05-23T20:13:10;100489.50;;;17.62;72.45
30875;BME280;17581;43.222;27.924;2023-05-23T20:15:36;100480.34;;;17.63;72.29
30875;BME280;17581;43.222;27.924;2023-05-23T20:18:02;100488.97;;;17.74;72.07
30875;BME280;17581;43.222;27.924;2023-05-23T20:20:27;100482.03;;;17.72;72.03
30875;BME280;17581;43.222;27.924;2023-05-23T20:22:53;100489.13;;;17.81;71.89
30875;BME280;17581;43.222;27.924;2023-05-23T20:25:18;100495.25;;;17.83;71.84
30875;BME280;17581;43.222;27.924;2023-05-23T20:27:44;100467.59;;;17.63;72.07
30875;BME280;17581;43.222;27.924;2023-05-23T20:30:10;100481.00;;;17.73;71.80
30875;BME280;17581;43.222;27.924;2023-05-23T20:32:36;100478.63;;;17.62;71.93